createdAt,value
2024-04-30T00:04:21.832Z,99116.83
2024-04-30T00:09:26.515Z,99113.35
2024-04-30T00:14:31.299Z,99115.88
2024-04-30T00:19:36.035Z,99119.42
2024-04-30T00:24:43.318Z,99127.24
2024-04-30T00:29:47.803Z,99125.80
2024-04-30T00:34:53.321Z,99127.86
2024-04-30T00:39:57.942Z,99127.16
2024-04-30T00:45:02.344Z,99134.35
2024-04-30T00:50:08.294Z,99135.91
2024-04-30T00:55:12.938Z,99146.89
2024-04-30T01:00:18.142Z,99157.46
2024-04-30T01:05:22.940Z,99163.23
2024-04-30T01:10:30.480Z,99167.25
2024-04-30T01:15:35.311Z,99169.14
2024-04-30T01:20:39.934Z,99164.88
2024-04-30T01:25:44.631Z,99161.73
2024-04-30T01:30:49.709Z,99163.79
2024-04-30T01:35:54.541Z,99161.87
2024-04-30T01:40:58.972Z,99158.33
2024-04-30T01:46:03.602Z,99158.95
2024-04-30T01:51:08.097Z,99157.60
2024-04-30T01:56:12.603Z,99157.30
2024-04-30T02:01:18.276Z,99160.61
2024-04-30T02:06:22.857Z,99157.29
2024-04-30T02:11:27.778Z,99163.53
2024-04-30T02:16:32.446Z,99163.52
2024-04-30T02:21:36.912Z,99165.27
2024-04-30T02:26:41.491Z,99161.33
2024-04-30T02:32:04.223Z,99160.69
2024-04-30T02:37:09.235Z,99166.14
2024-04-30T02:42:13.819Z,99166.22
2024-04-30T02:47:18.455Z,99160.85
2024-04-30T02:52:22.914Z,99160.45
2024-04-30T02:57:28.099Z,99162.11
2024-04-30T03:02:33.028Z,99161.79
2024-04-30T03:07:37.588Z,99160.84
2024-04-30T03:12:45.483Z,99166.52
2024-04-30T03:17:50.848Z,99164.72
2024-04-30T03:22:55.670Z,99166.28
2024-04-30T03:28:02.687Z,99166.20
2024-04-30T03:33:07.778Z,99167.30
2024-04-30T03:38:12.497Z,99166.13
2024-04-30T03:43:17.448Z,99173.86
2024-04-30T03:48:22.562Z,99178.90
2024-04-30T03:53:27.414Z,99177.66
2024-04-30T03:58:32.407Z,99182.69
2024-04-30T04:03:37.264Z,99185.16
2024-04-30T04:08:41.662Z,99188.69
2024-04-30T04:14:04.059Z,99186.40
2024-04-30T04:19:08.961Z,99188.30
2024-04-30T04:24:13.488Z,99189.48
2024-04-30T04:29:18.181Z,99188.99
2024-04-30T04:34:23.009Z,99187.42
2024-04-30T04:39:27.751Z,99192.63
2024-04-30T04:44:32.380Z,99201.94
2024-04-30T04:49:36.776Z,99197.83
2024-04-30T04:54:41.115Z,99191.60
2024-04-30T04:59:45.318Z,99194.90
2024-04-30T05:04:49.996Z,99193.00
2024-04-30T05:09:54.545Z,99194.73
2024-04-30T05:14:59.048Z,99188.09
2024-04-30T05:20:03.398Z,99191.69
2024-04-30T05:25:08.371Z,99197.27
2024-04-30T05:30:13.372Z,99195.18
2024-04-30T05:35:17.691Z,99189.88
2024-04-30T05:40:22.109Z,99190.41
2024-04-30T05:45:26.788Z,99190.86
2024-04-30T05:50:31.360Z,99195.34
2024-04-30T05:55:36.188Z,99197.61
2024-04-30T06:00:40.772Z,99201.75
2024-04-30T06:05:45.255Z,99208.77
2024-04-30T06:10:50.176Z,99212.60
2024-04-30T06:15:54.846Z,99213.27
2024-04-30T06:20:59.246Z,99210.33
2024-04-30T06:26:04.559Z,99214.38
2024-04-30T06:31:09.504Z,99218.07
2024-04-30T06:36:14.308Z,99218.91
2024-04-30T06:41:19.055Z,99217.55
2024-04-30T06:46:23.571Z,99214.27
2024-04-30T06:51:28.225Z,99210.63
2024-04-30T06:56:32.870Z,99201.08
2024-04-30T07:01:37.649Z,99199.48
2024-04-30T07:06:42.237Z,99198.35
2024-04-30T07:11:46.899Z,99199.80
2024-04-30T07:16:56.904Z,99199.23
2024-04-30T07:22:09.947Z,99196.66
2024-04-30T07:27:14.964Z,99200.51
2024-04-30T07:32:19.560Z,99201.67
2024-04-30T07:37:24.189Z,99207.23
2024-04-30T07:42:28.919Z,99201.98
2024-04-30T07:47:33.521Z,99202.67
2024-04-30T07:52:38.297Z,99205.13
2024-04-30T07:57:42.634Z,99200.09
2024-04-30T08:02:47.299Z,99196.54
2024-04-30T08:07:51.716Z,99194.84
2024-04-30T08:12:56.039Z,99191.42
2024-04-30T08:18:01.009Z,99191.70
2024-04-30T08:23:05.701Z,99188.52
2024-04-30T08:28:10.159Z,99185.73
2024-04-30T08:33:18.715Z,99184.73
2024-04-30T08:38:23.356Z,99191.42
2024-04-30T08:43:28.231Z,99188.01
2024-04-30T08:48:32.559Z,99182.77
2024-04-30T08:53:38.108Z,99182.09
2024-04-30T08:58:42.982Z,99181.16
2024-04-30T09:03:48.281Z,99175.17
2024-04-30T09:08:52.675Z,99169.67
2024-04-30T09:13:57.444Z,99162.30
2024-04-30T09:19:01.703Z,99159.31
2024-04-30T09:24:09.902Z,99154.24
2024-04-30T09:29:14.516Z,99149.82
2024-04-30T09:34:19.095Z,99142.61
2024-04-30T09:39:25.990Z,99138.44
2024-04-30T09:44:32.475Z,99130.50
2024-04-30T09:49:37.580Z,99126.05
2024-04-30T09:54:43.134Z,99119.10
2024-04-30T09:59:47.753Z,99114.53
2024-04-30T10:04:53.583Z,99104.64
2024-04-30T10:09:58.239Z,99103.45
2024-04-30T10:15:11.280Z,99100.27
2024-04-30T10:20:15.628Z,99092.45
2024-04-30T10:25:23.400Z,99093.61
2024-04-30T10:30:28.138Z,99090.23
2024-04-30T10:35:42.138Z,99077.84
2024-04-30T10:40:46.863Z,99070.23
2024-04-30T10:45:51.665Z,99062.76
2024-04-30T10:51:01.366Z,99058.11
2024-04-30T10:56:06.566Z,99049.48
2024-04-30T11:01:11.203Z,99043.41
2024-04-30T11:06:16.035Z,99037.23
2024-04-30T11:11:41.004Z,99038.11
2024-04-30T11:16:46.889Z,99020.07
2024-04-30T11:21:53.873Z,99011.48
2024-04-30T11:26:58.910Z,99011.63
2024-04-30T11:32:04.405Z,98999.85
2024-04-30T11:37:09.149Z,98995.73
2024-04-30T11:42:20.909Z,98992.34
2024-04-30T11:47:29.908Z,98988.13
2024-04-30T11:52:34.786Z,98970.05
2024-04-30T11:57:41.034Z,98966.30
2024-04-30T12:02:45.877Z,98971.45
2024-04-30T12:07:50.580Z,98965.02
2024-04-30T12:12:55.933Z,98958.63
2024-04-30T12:18:00.574Z,98955.83
2024-04-30T12:23:06.760Z,98947.99
2024-04-30T12:28:13.897Z,98933.84
2024-04-30T12:33:19.947Z,98932.00
2024-04-30T12:38:24.706Z,98932.63
2024-04-30T12:43:29.391Z,98925.88
2024-04-30T12:48:35.294Z,98916.50
2024-04-30T12:53:39.944Z,98907.17
2024-04-30T12:58:44.617Z,98892.71
2024-04-30T13:03:52.886Z,98881.13
2024-04-30T13:08:57.743Z,98877.65
2024-04-30T13:14:02.349Z,98868.34
2024-04-30T13:19:07.354Z,98864.66
2024-04-30T13:24:12.604Z,98849.48
2024-04-30T13:29:17.255Z,98840.79
2024-04-30T13:34:21.987Z,98838.77
2024-04-30T13:39:27.452Z,98832.84
2024-04-30T13:44:32.413Z,98830.36
2024-04-30T13:49:36.855Z,98819.27
2024-04-30T13:54:41.507Z,98816.91
2024-04-30T13:59:45.970Z,98814.71
2024-04-30T14:04:50.536Z,98808.46
2024-04-30T14:09:55.017Z,98800.52
2024-04-30T14:15:00.499Z,98791.91
2024-04-30T14:20:06.191Z,98781.14
2024-04-30T14:25:10.885Z,98780.18
2024-04-30T14:30:16.092Z,98780.13
2024-04-30T14:35:20.901Z,98776.24
2024-04-30T14:40:25.665Z,98773.31
2024-04-30T14:45:30.752Z,98766.00
2024-04-30T14:50:35.273Z,98760.49
2024-04-30T14:55:39.950Z,98752.02
2024-04-30T15:00:44.526Z,98746.33
2024-04-30T15:05:49.246Z,98744.90
2024-04-30T15:10:53.847Z,98743.38
2024-04-30T15:15:58.234Z,98732.52
2024-04-30T15:21:03.886Z,98723.89
2024-04-30T15:26:09.511Z,98712.80
2024-04-30T15:31:17.986Z,98707.77
2024-04-30T15:36:22.518Z,98706.69
2024-04-30T15:41:26.886Z,98701.37
2024-04-30T15:46:31.228Z,98696.14
2024-04-30T15:51:38.548Z,98687.95
2024-04-30T15:56:50.552Z,98683.96
2024-04-30T16:02:02.534Z,98681.63
2024-04-30T16:07:07.142Z,98680.81
2024-04-30T16:12:11.760Z,98680.66
2024-04-30T16:17:16.391Z,98672.73
2024-04-30T16:22:21.298Z,98669.21
2024-04-30T16:27:26.024Z,98669.23
2024-04-30T16:32:30.807Z,98665.66
2024-04-30T16:37:35.418Z,98664.30
2024-04-30T16:42:39.933Z,98666.02
2024-04-30T16:47:44.704Z,98665.77
2024-04-30T16:52:49.700Z,98668.77
2024-04-30T16:57:54.040Z,98662.21
2024-04-30T17:02:58.811Z,98664.73
2024-04-30T17:08:04.141Z,98664.45
2024-04-30T17:13:08.898Z,98666.18
2024-04-30T17:18:14.394Z,98665.96
2024-04-30T17:23:19.208Z,98668.34
2024-04-30T17:28:24.150Z,98670.16
2024-04-30T17:33:28.744Z,98670.31
2024-04-30T17:38:33.592Z,98667.90
2024-04-30T17:43:40.249Z,98670.08
2024-04-30T17:48:45.154Z,98667.05
2024-04-30T17:53:49.730Z,98661.91
2024-04-30T17:58:54.485Z,98660.80
2024-04-30T18:03:59.050Z,98660.49
2024-04-30T18:09:06.339Z,98655.73
2024-04-30T18:14:11.038Z,98663.80
2024-04-30T18:19:15.920Z,98668.24
2024-04-30T18:24:20.635Z,98671.16
2024-04-30T18:29:33.081Z,98674.07
2024-04-30T18:34:37.735Z,98672.88
2024-04-30T18:39:42.437Z,98676.86
2024-04-30T18:44:47.090Z,98675.82
2024-04-30T18:49:51.817Z,98670.68
2024-04-30T18:54:56.960Z,98668.33
2024-04-30T19:00:01.663Z,98669.60
2024-04-30T19:05:06.659Z,98670.61
2024-04-30T19:10:11.213Z,98672.20
2024-04-30T19:15:15.731Z,98677.33
2024-04-30T19:20:20.310Z,98685.02
2024-04-30T19:25:25.122Z,98681.52
2024-04-30T19:30:29.794Z,98682.92
2024-04-30T19:35:34.448Z,98685.20
2024-04-30T19:40:39.327Z,98681.66
2024-04-30T19:45:43.828Z,98682.36
2024-04-30T19:50:48.485Z,98681.63
2024-04-30T19:55:53.110Z,98679.66
2024-04-30T20:00:57.694Z,98680.84
2024-04-30T20:06:06.629Z,98695.68
2024-04-30T20:11:17.184Z,98715.98
2024-04-30T20:16:26.449Z,98719.03
2024-04-30T20:21:31.530Z,98722.67
2024-04-30T20:26:36.531Z,98713.33
2024-04-30T20:31:42.943Z,98705.84
2024-04-30T20:36:47.631Z,98713.26
2024-04-30T20:41:52.408Z,98720.24
2024-04-30T20:46:56.979Z,98718.82
2024-04-30T20:52:01.472Z,98729.64
2024-04-30T20:57:06.494Z,98734.48
2024-04-30T21:02:11.167Z,98739.77
2024-04-30T21:07:24.897Z,98741.09
2024-04-30T21:12:29.231Z,98743.58
2024-04-30T21:17:35.524Z,98741.45
2024-04-30T21:22:40.383Z,98743.27
2024-04-30T21:27:45.257Z,98737.00
2024-04-30T21:32:49.771Z,98736.45
2024-04-30T21:37:54.532Z,98735.97
2024-04-30T21:43:02.277Z,98736.36
2024-04-30T21:48:07.606Z,98738.90
2024-04-30T21:53:12.870Z,98729.85
2024-04-30T21:58:17.358Z,98727.41
2024-04-30T22:03:22.360Z,98727.40
2024-04-30T22:08:26.939Z,98731.81
2024-04-30T22:13:31.443Z,98733.30
2024-04-30T22:18:37.011Z,98740.48
2024-04-30T22:23:41.737Z,98747.56
2024-04-30T22:28:46.462Z,98751.77
2024-04-30T22:33:53.158Z,98752.86
2024-04-30T22:38:57.525Z,98756.17
2024-04-30T22:44:02.029Z,98756.51
2024-04-30T22:49:06.495Z,98754.45
2024-04-30T22:54:11.020Z,98756.27
2024-04-30T22:59:16.059Z,98750.86
2024-04-30T23:04:20.959Z,98745.72
2024-04-30T23:09:26.731Z,98744.61
2024-04-30T23:14:32.498Z,98739.95
2024-04-30T23:19:37.121Z,98736.84
2024-04-30T23:24:41.830Z,98732.98
2024-04-30T23:29:46.434Z,98737.66
2024-04-30T23:34:51.204Z,98730.34
2024-04-30T23:39:55.884Z,98730.98
2024-04-30T23:45:00.809Z,98727.34
2024-04-30T23:50:05.803Z,98727.19
2024-04-30T23:55:10.605Z,98726.14
